Terminal Aerodrome Forecast
Issued by NWS Milwaukee/Sullivan, WI

Home | Current Version | Previous Version | Text Only | Print | Product List | Glossary On
Versions: 1 2 3 4 5 6 7 8 9 10 11 12 13 14 15 16 17 18 19 20 21 22 23 24 25 26 27 28 29 30 31 32 33 34 35 36 37 38 39 40 41 42 43
000
FTUS43 KMKX 291136
TAFMKE
TAF
KMKE 291136Z 2912/3018 02010KT P6SM VCSH OVC025
     FM291500 07007KT P6SM VCSH OVC035
     FM291900 05008KT P6SM OVC040 PROB30 3000/3003 4SM SHRA OVC040
     FM300600 08008KT P6SM BKN080
     FM301700 05009KT P6SM BKN120=

USA.gov is the U.S. government's official web portal to all federal, state and local government web resources and services.